Time;durP1;ratioP1;P1;durP2;ratioP2;P2;SDS_P1;SDS_P2;PMS_P1;PMS_P2;Temp;Humidity;BMP_temperature;BMP_pressure;BME280_temperature;BME280_humidity;BME280_pressure;Samples;Min_cycle;Max_cycle;Signal;HPM_P1;HPM_P2
2023/12/19 00:02:12;;;;;;;1.87;1.70;;;;;;;-145.69;54.78;52398.84;4937027;29;20207;-80
2023/12/19 00:04:39;;;;;;;4.10;1.43;;;;;;;-145.69;54.71;52386.97;4937568;29;20239;-80
2023/12/19 00:07:07;;;;;;;1.73;1.37;;;;;;;-145.69;54.90;52381.00;4937104;29;20627;-80
2023/12/19 00:09:34;;;;;;;3.30;1.10;;;;;;;-145.69;55.17;52377.06;4936709;29;20267;-81
2023/12/19 00:12:04;;;;;;;1.20;0.97;;;;;;;-145.69;55.92;52377.06;4936949;29;20730;-81
2023/12/19 00:14:30;;;;;;;1.47;1.10;;;;;;;-145.69;57.46;52402.78;4937006;29;20198;-81
2023/12/19 00:16:58;;;;;;;1.10;1.00;;;;;;;-145.69;57.00;52379.03;4936879;29;20218;-81
2023/12/19 00:19:25;;;;;;;1.53;1.20;;;;;;;-145.69;56.96;52377.06;4936742;29;20294;-81
2023/12/19 00:21:51;;;;;;;0.87;0.87;;;;;;;-145.69;55.88;52377.06;4936982;29;20640;-81
2023/12/19 00:24:19;;;;;;;1.93;0.80;;;;;;;-145.69;56.30;52375.06;4937050;29;20263;-81
2023/12/19 00:26:45;;;;;;;3.90;1.00;;;;;;;-145.69;57.78;52384.97;4936755;29;20294;-81
2023/12/19 00:29:12;;;;;;;1.07;1.00;;;;;;;-145.69;57.87;52396.84;4937011;29;20226;-81
2023/12/19 00:31:39;;;;;;;1.60;0.87;;;;;;;-145.69;58.10;52388.94;4936786;29;20204;-81
2023/12/19 00:34:05;;;;;;;3.40;1.00;;;;;;;-145.69;57.52;52390.91;4936450;29;20208;-81
2023/12/19 00:36:40;;;;;;;0.70;0.60;;;;;;;-145.69;56.94;52379.03;4936475;29;20567;-81
2023/12/19 00:39:09;;;;;;;0.80;0.80;;;;;;;-145.69;55.37;52394.88;4936031;29;20211;-81
2023/12/19 00:41:37;;;;;;;0.90;0.90;;;;;;;-145.69;55.25;52353.28;4936668;29;20548;-82
2023/12/19 00:44:05;;;;;;;2.87;1.00;;;;;;;-145.69;55.47;52379.03;4936546;29;20222;-80
2023/12/19 00:46:31;;;;;;;0.90;0.90;;;;;;;-145.69;55.19;52388.94;4936674;29;20210;-81
2023/12/19 00:48:58;;;;;;;0.90;0.90;;;;;;;-145.69;55.60;52379.03;4936637;29;20203;-80
2023/12/19 00:51:24;;;;;;;1.03;0.93;;;;;;;-145.69;55.95;52363.19;4936561;29;20235;-80
2023/12/19 00:53:51;;;;;;;0.90;0.80;;;;;;;-145.69;54.88;52373.09;4936475;29;20207;-80
2023/12/19 00:56:19;;;;;;;0.97;0.90;;;;;;;-145.69;55.52;52375.06;4936397;29;20298;-80
2023/12/19 00:58:47;;;;;;;1.40;0.87;;;;;;;-145.69;55.80;52377.06;4936250;29;20203;-80
2023/12/19 01:01:14;;;;;;;0.93;0.83;;;;;;;-145.69;55.92;52357.25;4936080;29;20214;-80
2023/12/19 01:03:45;;;;;;;1.00;1.00;;;;;;;-145.69;55.37;52369.13;4936219;29;20671;-80
2023/12/19 01:06:11;;;;;;;0.70;0.70;;;;;;;-145.69;54.50;52400.81;4935558;29;20195;-80
2023/12/19 01:08:38;;;;;;;0.70;0.70;;;;;;;-145.69;54.62;52381.00;4935868;29;20707;-80
2023/12/19 01:11:07;;;;;;;1.20;1.10;;;;;;;-145.69;54.68;52365.16;4935933;29;20235;-80
2023/12/19 01:13:33;;;;;;;0.90;0.87;;;;;;;-145.69;52.82;52361.22;4921151;29;20684;-80
2023/12/19 01:16:01;;;;;;;0.70;0.70;;;;;;;-145.69;52.80;52353.28;4935512;29;20266;-79
2023/12/19 01:18:28;;;;;;;0.70;0.70;;;;;;;-145.69;52.59;52384.97;4935751;29;20259;-80
2023/12/19 01:20:55;;;;;;;0.73;0.70;;;;;;;-145.69;51.33;52339.44;4936120;29;20214;-81
2023/12/19 01:23:25;;;;;;;1.67;0.77;;;;;;;-145.69;51.65;52400.81;4935461;29;20207;-80
2023/12/19 01:25:51;;;;;;;1.23;1.10;;;;;;;-145.69;51.68;52390.91;4935862;29;20271;-81
2023/12/19 01:28:18;;;;;;;0.77;0.77;;;;;;;-145.69;53.07;52361.22;4935815;29;20207;-80
2023/12/19 01:30:44;;;;;;;1.33;0.80;;;;;;;-145.69;53.30;52388.94;4928851;29;20258;-81
2023/12/19 01:33:12;;;;;;;0.80;0.80;;;;;;;-145.69;51.10;52375.06;4916679;29;20572;-81
2023/12/19 01:35:43;;;;;;;0.80;0.80;;;;;;;-145.69;51.57;52327.53;4916764;29;20219;-81
2023/12/19 01:38:13;;;;;;;0.90;0.90;;;;;;;-145.69;51.23;52377.06;4916744;29;20207;-79
2023/12/19 01:40:40;;;;;;;0.87;0.83;;;;;;;-145.69;49.74;52361.22;4916848;29;20211;-78
2023/12/19 01:43:17;;;;;;;1.07;0.97;;;;;;;-145.69;49.22;52341.41;4916521;29;20215;-79
2023/12/19 01:45:44;;;;;;;0.87;0.87;;;;;;;-145.69;49.69;52361.22;4919374;29;20203;-79
2023/12/19 01:48:12;;;;;;;2.20;0.97;;;;;;;-145.69;49.39;52369.13;4934694;29;20200;-80
2023/12/19 01:50:39;;;;;;;0.80;0.80;;;;;;;-145.69;49.53;52383.00;4934885;29;20694;-81
2023/12/19 01:53:05;;;;;;;0.90;0.90;;;;;;;-145.69;48.67;52381.00;4934882;29;20651;-79
2023/12/19 01:55:31;;;;;;;1.93;0.73;;;;;;;-145.69;50.23;52361.22;4935576;29;20204;-79
2023/12/19 01:57:59;;;;;;;0.80;0.80;;;;;;;-145.69;51.81;52400.81;4934658;29;20199;-80
2023/12/19 02:00:25;;;;;;;1.07;1.00;;;;;;;-145.69;50.79;52335.47;4935506;29;20662;-81
2023/12/19 02:02:53;;;;;;;0.83;0.83;;;;;;;-145.69;51.97;52416.66;4935663;29;20235;-81
2023/12/19 02:05:21;;;;;;;0.70;0.70;;;;;;;-145.69;51.50;52384.97;4935151;29;20207;-79
2023/12/19 02:07:48;;;;;;;0.93;0.93;;;;;;;-145.69;53.07;52383.00;4935503;29;20294;-81
2023/12/19 02:10:15;;;;;;;0.83;0.83;;;;;;;-145.69;52.87;52353.28;4935042;29;20243;-79
2023/12/19 02:12:43;;;;;;;0.73;0.70;;;;;;;-145.69;51.96;52388.94;4935330;29;20590;-79
2023/12/19 02:15:10;;;;;;;0.70;0.70;;;;;;;-145.69;52.45;52357.25;4935553;29;20204;-81
2023/12/19 02:17:36;;;;;;;0.70;0.70;;;;;;;-145.69;51.60;52369.13;4935406;29;20211;-79
2023/12/19 02:20:03;;;;;;;0.70;0.70;;;;;;;-145.69;50.67;52361.22;4935385;29;20211;-81
2023/12/19 02:22:32;;;;;;;1.07;0.90;;;;;;;-145.69;50.20;52371.13;4934037;29;20200;-79
2023/12/19 02:24:59;;;;;;;0.97;0.83;;;;;;;-145.69;49.20;52369.13;4933105;29;20210;-79
2023/12/19 02:27:26;;;;;;;0.70;0.70;;;;;;;-145.69;49.50;52355.28;4939289;29;20207;-79
2023/12/19 02:29:53;;;;;;;0.60;0.60;;;;;;;-145.69;49.72;52428.53;4938946;29;20211;-79
2023/12/19 02:32:19;;;;;;;2.00;0.70;;;;;;;-145.69;49.03;52392.91;4922212;29;20571;-81
2023/12/19 02:34:48;;;;;;;0.77;0.77;;;;;;;-145.69;48.89;52373.09;4919833;29;20548;-81
2023/12/19 02:37:14;;;;;;;0.80;0.80;;;;;;;-145.69;48.29;52379.03;4929686;29;20235;-81
2023/12/19 02:39:41;;;;;;;0.63;0.63;;;;;;;-145.69;46.82;52369.13;4938782;29;20208;-82
2023/12/19 02:42:09;;;;;;;0.80;0.77;;;;;;;-145.69;47.58;52341.41;4938770;29;20655;-80
2023/12/19 02:44:35;;;;;;;4.57;0.80;;;;;;;-145.69;48.13;52361.22;4938818;29;20203;-80
2023/12/19 02:47:02;;;;;;;0.70;0.70;;;;;;;-145.69;48.16;52379.03;4938555;29;20195;-81
2023/12/19 02:49:28;;;;;;;0.60;0.60;;;;;;;-145.69;48.13;52353.28;4938534;29;20204;-81
2023/12/19 02:51:55;;;;;;;0.80;0.80;;;;;;;-145.69;47.83;52381.00;4938313;29;20626;-81
2023/12/19 02:54:21;;;;;;;0.80;0.80;;;;;;;-145.69;47.60;52345.38;4938197;29;20693;-81
2023/12/19 02:56:48;;;;;;;0.60;0.60;;;;;;;-145.69;46.90;52355.28;4938502;29;20210;-81
2023/12/19 02:59:16;;;;;;;0.70;0.70;;;;;;;-145.69;48.24;52335.47;4938205;29;20207;-81
2023/12/19 03:01:48;;;;;;;0.80;0.80;;;;;;;-145.69;47.27;52349.31;4938785;29;20651;-82
2023/12/19 03:04:14;;;;;;;1.00;1.00;;;;;;;-145.69;46.99;52319.63;4938370;29;20215;-82
2023/12/19 03:06:41;;;;;;;0.93;0.70;;;;;;;-145.69;47.23;52365.16;4938498;29;20218;-82
2023/12/19 03:09:07;;;;;;;0.97;0.70;;;;;;;-145.69;47.66;52373.09;4937994;29;20564;-82
2023/12/19 03:11:38;;;;;;;0.60;0.60;;;;;;;-145.69;48.27;52369.13;4938229;29;20234;-81
2023/12/19 03:14:04;;;;;;;1.07;0.83;;;;;;;-145.69;50.49;52353.28;4938340;29;20214;-81
2023/12/19 03:16:34;;;;;;;0.60;0.60;;;;;;;-145.69;49.95;52355.28;4937809;29;20278;-81
2023/12/19 03:19:00;;;;;;;1.00;1.00;;;;;;;-145.69;49.12;52371.13;4937918;29;20207;-81
2023/12/19 03:21:27;;;;;;;2.67;0.90;;;;;;;-145.69;49.33;52357.25;4938169;29;20555;-82
2023/12/19 03:23:53;;;;;;;1.03;0.70;;;;;;;-145.69;49.35;52396.84;4935050;29;20200;-81
2023/12/19 03:26:22;;;;;;;1.37;0.90;;;;;;;-145.69;49.49;52392.91;4927080;29;20631;-82
2023/12/19 03:28:51;;;;;;;1.17;0.80;;;;;;;-145.69;49.74;52371.13;4937876;29;20290;-81
2023/12/19 03:31:17;;;;;;;0.63;0.63;;;;;;;-145.69;50.78;52396.84;4937840;29;20239;-81
2023/12/19 03:33:45;;;;;;;1.17;0.80;;;;;;;-145.69;50.63;52353.28;4937918;29;20263;-81
2023/12/19 03:36:12;;;;;;;0.80;0.73;;;;;;;-145.69;50.52;52369.13;4936882;29;20215;-81
2023/12/19 03:38:38;;;;;;;0.70;0.70;;;;;;;-145.69;50.30;52361.22;4937975;29;20203;-81
2023/12/19 03:41:06;;;;;;;0.73;0.73;;;;;;;-145.69;50.04;52347.34;4937759;29;20207;-81
2023/12/19 03:43:34;;;;;;;0.90;0.90;;;;;;;-145.69;50.82;52388.94;4937657;29;20215;-81
2023/12/19 03:46:04;;;;;;;1.00;0.90;;;;;;;-145.69;49.71;52396.84;4937867;29;20633;-81
2023/12/19 03:48:31;;;;;;;0.60;0.60;;;;;;;-145.69;49.93;52369.13;4934797;29;20238;-81
2023/12/19 03:51:00;;;;;;;0.70;0.70;;;;;;;-145.69;50.57;52377.06;4937682;29;20234;-81
2023/12/19 03:53:27;;;;;;;0.60;0.60;;;;;;;-145.69;49.68;52373.09;4937379;29;20218;-79
2023/12/19 03:55:52;;;;;;;1.17;1.10;;;;;;;-145.69;49.59;52353.28;4937438;29;20227;-81
2023/12/19 03:58:19;;;;;;;0.87;0.70;;;;;;;-145.69;50.02;52398.84;4937494;29;20204;-81
2023/12/19 04:00:45;;;;;;;0.60;0.60;;;;;;;-145.69;50.87;52398.84;4936905;29;20408;-81
2023/12/19 04:03:12;;;;;;;0.90;0.90;;;;;;;-145.69;50.47;52349.31;4937499;29;20207;-81
2023/12/19 04:05:38;;;;;;;1.17;0.73;;;;;;;-145.69;50.97;52345.38;4937272;29;20288;-81
2023/12/19 04:08:06;;;;;;;2.93;0.70;;;;;;;-145.69;50.16;52377.06;4937079;29;20294;-80
2023/12/19 04:10:33;;;;;;;1.00;0.70;;;;;;;-145.69;50.14;52367.16;4937133;29;20238;-80
2023/12/19 04:13:00;;;;;;;0.73;0.73;;;;;;;-145.69;48.97;52365.16;4937214;29;20207;-79
2023/12/19 04:15:26;;;;;;;1.60;0.70;;;;;;;-145.69;49.91;52323.59;4937184;29;20211;-79
2023/12/19 04:17:52;;;;;;;0.80;0.80;;;;;;;-145.69;49.46;52384.97;4937041;29;20261;-80
2023/12/19 04:20:19;;;;;;;0.60;0.60;;;;;;;-145.69;49.40;52357.25;4937093;29;20207;-80
2023/12/19 04:22:45;;;;;;;0.70;0.70;;;;;;;-145.69;49.10;52373.09;4937025;29;20203;-79
2023/12/19 04:25:15;;;;;;;0.80;0.73;;;;;;;-145.69;49.50;52345.38;4936684;29;20204;-80
2023/12/19 04:27:42;;;;;;;0.70;0.70;;;;;;;-145.69;50.28;52388.94;4936412;29;20540;-79
2023/12/19 04:30:09;;;;;;;0.70;0.70;;;;;;;-145.69;49.08;52381.00;4936524;29;20207;-80
2023/12/19 04:32:36;;;;;;;0.70;0.70;;;;;;;-145.69;49.94;52353.28;4936335;29;20223;-79
2023/12/19 04:35:02;;;;;;;1.07;0.70;;;;;;;-145.69;50.42;52375.06;4936764;29;20199;-79
2023/12/19 04:37:29;;;;;;;0.70;0.70;;;;;;;-145.69;50.56;52345.38;4936480;29;20199;-79
2023/12/19 04:39:57;;;;;;;0.60;0.60;;;;;;;-145.69;50.00;52361.22;4936630;29;20331;-80
2023/12/19 04:42:25;;;;;;;0.63;0.63;;;;;;;-145.69;50.04;52357.25;4936348;29;20655;-80
2023/12/19 04:44:51;;;;;;;1.23;0.70;;;;;;;-145.69;51.10;52371.13;4936464;29;20703;-79
2023/12/19 04:47:18;;;;;;;1.03;0.60;;;;;;;-145.69;52.16;52375.06;4936403;29;20204;-79
2023/12/19 04:49:44;;;;;;;0.90;0.90;;;;;;;-145.69;53.38;52371.13;4936645;29;20208;-79
2023/12/19 04:52:12;;;;;;;0.83;0.83;;;;;;;-145.69;53.02;52365.16;4936445;29;20263;-79
2023/12/19 04:54:38;;;;;;;0.87;0.87;;;;;;;-145.69;52.26;52353.28;4935846;29;20558;-80
2023/12/19 04:57:06;;;;;;;1.47;0.70;;;;;;;-145.69;51.60;52365.16;4936341;29;20211;-80
2023/12/19 04:59:34;;;;;;;0.97;0.90;;;;;;;-145.69;51.12;52384.97;4936042;29;20210;-80
2023/12/19 05:02:01;;;;;;;5.00;0.80;;;;;;;-145.69;49.93;52373.09;4936204;29;20200;-80
2023/12/19 05:04:30;;;;;;;2.47;0.90;;;;;;;-145.69;49.65;52396.84;4936247;29;20207;-80
2023/12/19 05:06:57;;;;;;;1.33;0.70;;;;;;;-145.69;49.28;52388.94;4936261;29;20225;-79
2023/12/19 05:09:25;;;;;;;1.53;0.70;;;;;;;-145.69;49.71;52327.53;4936142;29;20236;-80
2023/12/19 05:11:53;;;;;;;0.90;0.90;;;;;;;-145.69;49.47;52349.31;4935993;29;20227;-80
2023/12/19 05:14:20;;;;;;;1.30;0.80;;;;;;;-145.69;49.73;52349.31;4936000;29;20211;-80
2023/12/19 05:16:47;;;;;;;2.60;0.60;;;;;;;-145.69;50.67;52349.31;4935764;29;20207;-80
2023/12/19 05:19:14;;;;;;;0.70;0.70;;;;;;;-145.69;49.95;52367.16;4936294;29;20211;-79
2023/12/19 05:21:41;;;;;;;0.80;0.80;;;;;;;-145.69;49.53;52384.97;4921291;29;20683;-79
2023/12/19 05:24:09;;;;;;;0.60;0.60;;;;;;;-145.69;50.50;52349.31;4921691;29;20203;-79
2023/12/19 05:26:36;;;;;;;0.80;0.70;;;;;;;-145.69;50.19;52384.97;4935942;29;20655;-80
2023/12/19 05:29:02;;;;;;;0.60;0.60;;;;;;;-145.69;50.29;52384.97;4935544;29;20210;-80
2023/12/19 05:31:29;;;;;;;0.70;0.70;;;;;;;-145.69;50.80;52371.13;4935941;29;20278;-80
2023/12/19 05:33:57;;;;;;;3.30;1.03;;;;;;;-145.69;51.81;52337.44;4935709;29;20659;-80
2023/12/19 05:36:33;;;;;;;1.03;0.80;;;;;;;-145.69;51.17;52365.16;4935656;29;20651;-80
2023/12/19 05:39:00;;;;;;;0.80;0.80;;;;;;;-145.69;51.29;52363.19;4935513;29;20195;-79
2023/12/19 05:41:26;;;;;;;3.27;0.90;;;;;;;-145.69;52.08;52365.16;4935602;29;20288;-79
2023/12/19 05:43:56;;;;;;;0.80;0.77;;;;;;;-145.69;52.20;52381.00;4935476;29;20258;-80
2023/12/19 05:46:22;;;;;;;0.70;0.70;;;;;;;-145.69;51.56;52331.50;4935627;29;20512;-79
2023/12/19 05:48:51;;;;;;;0.70;0.70;;;;;;;-145.69;50.70;52381.00;4935302;29;20199;-80
2023/12/19 05:51:19;;;;;;;1.77;1.10;;;;;;;-145.69;50.77;52384.97;4934888;29;20327;-80
2023/12/19 05:53:46;;;;;;;0.87;0.83;;;;;;;-145.69;52.42;52337.44;4933383;29;20211;-80
2023/12/19 05:56:13;;;;;;;0.97;0.83;;;;;;;-145.69;53.54;52353.28;4933986;29;20200;-79
2023/12/19 05:58:40;;;;;;;0.80;0.80;;;;;;;-145.69;52.97;52386.97;4936584;29;20214;-79
2023/12/19 06:01:06;;;;;;;0.80;0.80;;;;;;;-145.69;52.14;52394.88;4939413;29;20258;-79
2023/12/19 06:03:33;;;;;;;0.90;0.90;;;;;;;-145.69;51.93;52345.38;4939335;29;20236;-79
2023/12/19 06:06:02;;;;;;;0.70;0.70;;;;;;;-145.69;51.47;52355.28;4939189;29;20213;-79
2023/12/19 06:08:30;;;;;;;3.70;0.73;;;;;;;-145.69;50.26;52349.31;4939239;29;20580;-79
2023/12/19 06:10:56;;;;;;;1.03;0.87;;;;;;;-145.69;50.58;52384.97;4939111;29;20242;-79
2023/12/19 06:13:23;;;;;;;1.27;0.90;;;;;;;-145.69;50.44;52343.38;4939266;29;20207;-79
2023/12/19 06:15:49;;;;;;;0.70;0.70;;;;;;;-145.69;49.96;52367.16;4939059;29;20207;-79
2023/12/19 06:18:16;;;;;;;0.90;0.77;;;;;;;-145.69;50.72;52361.22;4939234;29;20211;-79
2023/12/19 06:20:43;;;;;;;1.33;1.00;;;;;;;-145.69;51.58;52355.28;4939192;29;20204;-79
2023/12/19 06:23:09;;;;;;;1.23;0.90;;;;;;;-145.69;51.76;52353.28;4938881;29;20231;-79
2023/12/19 06:25:39;;;;;;;0.90;0.90;;;;;;;-145.69;50.73;52357.25;4938707;29;20202;-79
2023/12/19 06:28:06;;;;;;;0.70;0.70;;;;;;;-145.69;50.50;52353.28;4939157;29;20214;-79
2023/12/19 06:30:33;;;;;;;2.23;1.10;;;;;;;-145.69;49.94;52353.28;4938592;29;20600;-79
2023/12/19 06:33:00;;;;;;;0.83;0.80;;;;;;;-145.69;50.74;52341.41;4938513;29;20235;-79
2023/12/19 06:35:28;;;;;;;1.83;0.93;;;;;;;-145.69;50.42;52365.16;4939004;29;20204;-80
2023/12/19 06:37:54;;;;;;;1.00;0.90;;;;;;;-145.69;50.22;52396.84;4938828;29;20242;-80
2023/12/19 06:40:21;;;;;;;1.03;0.87;;;;;;;-145.69;50.82;52375.06;4938617;29;20291;-79
2023/12/19 06:42:49;;;;;;;1.33;0.80;;;;;;;-145.69;50.01;52353.28;4938712;29;20319;-80
2023/12/19 06:45:18;;;;;;;0.93;0.90;;;;;;;-145.69;49.29;52345.38;4938625;29;20682;-80
2023/12/19 06:47:47;;;;;;;0.90;0.77;;;;;;;-145.69;49.73;52381.00;4938724;29;20207;-80
2023/12/19 06:50:15;;;;;;;0.70;0.70;;;;;;;-145.69;49.43;52396.84;4938804;29;20207;-79
2023/12/19 06:52:41;;;;;;;0.97;0.87;;;;;;;-145.69;49.46;52365.16;4938643;29;20262;-79
2023/12/19 06:55:11;;;;;;;0.70;0.70;;;;;;;-145.69;49.33;52351.31;4938589;29;20544;-79
2023/12/19 06:57:38;;;;;;;1.77;0.90;;;;;;;-145.69;49.76;52327.53;4938541;29;20235;-79
2023/12/19 07:00:07;;;;;;;1.70;1.00;;;;;;;-145.69;49.66;52369.13;4938139;29;20215;-79
2023/12/19 07:02:36;;;;;;;2.60;1.30;;;;;;;-145.69;50.15;52361.22;4938444;29;20200;-80
2023/12/19 07:05:03;;;;;;;1.00;1.00;;;;;;;-145.69;49.33;52386.97;4938333;29;20203;-79
2023/12/19 07:07:29;;;;;;;2.27;1.00;;;;;;;-145.69;49.63;52384.97;4938337;29;20298;-79
2023/12/19 07:09:56;;;;;;;1.40;1.30;;;;;;;-145.69;49.70;52325.56;4936422;29;20243;-79
2023/12/19 07:12:22;;;;;;;1.73;1.00;;;;;;;-145.69;49.15;52369.13;4938131;29;20231;-79
2023/12/19 07:14:49;;;;;;;1.03;0.90;;;;;;;-145.69;50.22;52377.06;4936955;29;20210;-79
2023/12/19 07:17:17;;;;;;;1.60;1.00;;;;;;;-145.69;52.02;52349.31;4936206;29;20271;-79
2023/12/19 07:19:44;;;;;;;4.03;1.07;;;;;;;-145.69;50.76;52377.06;4926901;29;20207;-79
2023/12/19 07:22:10;;;;;;;1.43;0.90;;;;;;;-145.69;50.11;52357.25;4938221;29;20207;-79
2023/12/19 07:24:37;;;;;;;4.43;0.93;;;;;;;-145.69;49.56;52384.97;4929389;29;20208;-79
2023/12/19 07:27:04;;;;;;;0.87;0.83;;;;;;;-145.69;48.66;52371.13;4918677;29;20223;-80
2023/12/19 07:29:31;;;;;;;0.67;0.67;;;;;;;-145.69;49.05;52341.41;4919066;29;20219;-79
2023/12/19 07:31:58;;;;;;;1.33;0.80;;;;;;;-145.69;48.90;52369.13;4919006;29;20595;-79
2023/12/19 07:34:25;;;;;;;1.20;0.80;;;;;;;-145.69;48.79;52317.66;4931061;29;20195;-79
2023/12/19 07:36:52;;;;;;;1.43;1.07;;;;;;;-145.69;49.26;52333.47;4937652;29;20660;-80
2023/12/19 07:39:18;;;;;;;0.93;0.90;;;;;;;-145.69;50.87;52377.06;4937767;29;20292;-80
2023/12/19 07:41:45;;;;;;;1.20;1.00;;;;;;;-145.69;50.05;52349.31;4936746;29;20202;-79
2023/12/19 07:44:14;;;;;;;1.23;0.80;;;;;;;-145.69;48.92;52357.25;4937665;29;20215;-79
2023/12/19 07:46:41;;;;;;;1.23;1.00;;;;;;;-145.69;49.58;52394.88;4937503;29;20235;-79
2023/12/19 07:49:08;;;;;;;1.13;0.83;;;;;;;-145.69;49.71;52345.38;4937072;29;20259;-79
2023/12/19 07:51:36;;;;;;;0.67;0.67;;;;;;;-145.69;50.51;52373.09;4937279;29;20282;-80
2023/12/19 07:54:03;;;;;;;1.13;0.90;;;;;;;-145.69;51.33;52373.09;4937454;29;20207;-80
2023/12/19 07:56:29;;;;;;;0.80;0.80;;;;;;;-145.69;51.93;52357.25;4937754;29;20223;-79
2023/12/19 07:58:57;;;;;;;1.00;0.90;;;;;;;-145.69;49.52;52337.44;4937317;29;20211;-79
2023/12/19 08:01:26;;;;;;;3.57;2.10;;;;;;;-145.69;49.99;52377.06;4937029;29;20270;-79
2023/12/19 08:03:52;;;;;;;4.67;1.10;;;;;;;-145.69;49.96;52351.31;4935713;29;20204;-80
2023/12/19 08:06:19;;;;;;;1.10;0.93;;;;;;;-145.69;49.90;52377.06;4937047;29;20263;-79
2023/12/19 08:08:49;;;;;;;1.00;1.00;;;;;;;-145.69;49.33;52373.09;4936694;29;20235;-80
2023/12/19 08:11:16;;;;;;;1.73;0.87;;;;;;;-145.69;49.60;52333.47;4937193;29;20647;-80
2023/12/19 08:13:43;;;;;;;1.00;0.70;;;;;;;-145.69;48.85;52331.50;4937206;29;20228;-80
2023/12/19 08:16:10;;;;;;;0.80;0.80;;;;;;;-145.69;48.27;52347.34;4937044;29;20203;-80
2023/12/19 08:18:36;;;;;;;0.70;0.70;;;;;;;-145.69;48.40;52329.53;4937075;29;20215;-80
2023/12/19 08:21:03;;;;;;;2.00;0.60;;;;;;;-145.69;50.61;52337.44;4935735;29;20667;-80
2023/12/19 08:23:30;;;;;;;0.90;0.90;;;;;;;-145.69;50.32;52349.31;4936514;29;20554;-80
2023/12/19 08:25:58;;;;;;;1.03;0.70;;;;;;;-145.69;50.72;52365.16;4936910;29;20655;-79
2023/12/19 08:28:24;;;;;;;1.03;0.80;;;;;;;-145.69;50.36;52363.19;4936670;29;20678;-80
2023/12/19 08:30:51;;;;;;;0.80;0.67;;;;;;;-145.69;50.14;52339.44;4936853;29;20207;-80
2023/12/19 08:33:17;;;;;;;1.23;1.00;;;;;;;-145.69;51.33;52339.44;4936552;29;20231;-79
2023/12/19 08:35:44;;;;;;;0.90;0.80;;;;;;;-145.69;52.00;52384.97;4936165;29;20208;-80
2023/12/19 08:38:11;;;;;;;0.77;0.70;;;;;;;-145.69;51.51;52357.25;4936843;29;20212;-80
2023/12/19 08:40:38;;;;;;;1.80;0.70;;;;;;;-145.69;51.02;52351.31;4936765;29;20697;-78
2023/12/19 08:43:05;;;;;;;1.00;0.90;;;;;;;-145.69;49.82;52357.25;4936671;29;20208;-80
2023/12/19 08:45:32;;;;;;;2.30;0.70;;;;;;;-145.69;47.11;52345.38;4936517;29;20204;-80
2023/12/19 08:48:01;;;;;;;2.20;0.80;;;;;;;-145.69;48.11;52369.13;4936471;29;20203;-80
2023/12/19 08:50:27;;;;;;;1.10;0.70;;;;;;;-145.69;48.30;52331.50;4929327;29;20200;-80
2023/12/19 08:52:55;;;;;;;1.17;0.80;;;;;;;-145.69;45.08;52357.25;4917312;29;20232;-80
2023/12/19 08:55:22;;;;;;;0.60;0.60;;;;;;;-145.69;43.02;52349.31;4917472;29;20303;-80
2023/12/19 08:57:50;;;;;;;1.27;1.00;;;;;;;-145.69;44.17;52365.16;4919390;29;20222;-80
2023/12/19 09:00:20;;;;;;;2.53;1.10;;;;;;;-145.69;46.75;52329.53;4936303;29;20203;-79
2023/12/19 09:02:49;;;;;;;1.20;0.97;;;;;;;-145.69;45.68;52343.38;4936137;29;20203;-79
2023/12/19 09:05:17;;;;;;;1.50;1.00;;;;;;;-145.69;44.08;52331.50;4936177;29;20210;-79
2023/12/19 09:07:46;;;;;;;0.57;0.57;;;;;;;-145.69;44.12;52347.34;4936234;29;20239;-79
2023/12/19 09:10:16;;;;;;;6.37;1.00;;;;;;;-145.69;42.99;52349.31;4935749;29;20695;-79
2023/12/19 09:12:44;;;;;;;1.30;0.87;;;;;;;-145.69;41.89;52315.66;4935621;29;20575;-79
2023/12/19 09:15:11;;;;;;;1.03;0.93;;;;;;;-145.69;43.78;52331.50;4932988;29;20195;-79
2023/12/19 09:17:39;;;;;;;1.60;1.23;;;;;;;-145.69;42.69;52319.63;4935677;29;20203;-79
2023/12/19 09:20:07;;;;;;;0.77;0.77;;;;;;;-145.69;42.33;52309.72;4935715;29;20235;-78
2023/12/19 09:22:35;;;;;;;4.17;1.23;;;;;;;-145.69;40.62;52319.63;4935907;29;20215;-79
2023/12/19 09:25:01;;;;;;;1.30;1.20;;;;;;;-145.69;38.65;52309.72;4935435;29;20293;-79
2023/12/19 09:27:28;;;;;;;1.57;1.10;;;;;;;-145.69;39.15;52305.75;4935806;29;20230;-80
2023/12/19 09:29:54;;;;;;;1.40;1.20;;;;;;;-145.69;38.34;52309.72;4935433;29;20329;-79
2023/12/19 09:32:22;;;;;;;6.37;1.17;;;;;;;-145.69;38.65;52303.78;4935802;29;20234;-79
2023/12/19 09:34:50;;;;;;;1.03;0.80;;;;;;;-145.69;37.28;52305.75;4934575;29;20702;-80
2023/12/19 09:37:16;;;;;;;2.43;1.20;;;;;;;-145.69;37.00;52317.66;4935806;29;20207;-80
2023/12/19 09:39:46;;;;;;;6.70;0.83;;;;;;;-145.69;37.39;52293.88;4935794;29;20561;-79
2023/12/19 09:42:15;;;;;;;0.93;0.80;;;;;;;-145.69;36.89;52315.66;4935479;29;20203;-79
2023/12/19 09:44:41;;;;;;;2.23;1.03;;;;;;;-145.69;36.50;52305.75;4935758;29;20215;-78
2023/12/19 09:47:08;;;;;;;2.30;0.90;;;;;;;-145.69;35.52;52307.75;4935415;29;20203;-78
2023/12/19 09:49:39;;;;;;;3.50;0.90;;;;;;;-145.69;35.23;52278.03;4935664;29;20563;-79
2023/12/19 09:52:09;;;;;;;2.67;0.80;;;;;;;-145.69;36.43;52272.09;4935367;29;20559;-79
2023/12/19 09:54:38;;;;;;;7.00;1.20;;;;;;;-145.69;36.44;52297.84;4935554;29;20259;-80
2023/12/19 09:57:05;;;;;;;0.90;0.90;;;;;;;-145.69;36.16;52220.59;4935472;29;20545;-80
2023/12/19 09:59:34;;;;;;;5.50;0.90;;;;;;;-145.69;34.45;52305.75;4935440;29;20350;-79
2023/12/19 10:02:01;;;;;;;0.87;0.80;;;;;;;-145.69;34.65;52278.03;4935610;29;20574;-79
2023/12/19 10:04:27;;;;;;;1.63;0.80;;;;;;;-145.69;33.44;52250.31;4935587;29;20464;-78
2023/12/19 10:06:55;;;;;;;0.80;0.80;;;;;;;-145.69;33.87;52285.97;4935517;29;20218;-79
2023/12/19 10:09:26;;;;;;;1.03;0.70;;;;;;;-145.69;34.40;52280.00;4935357;29;20239;-78
2023/12/19 10:12:06;;;;;;;1.87;1.00;;;;;;;-145.69;33.75;52254.28;4935637;29;20210;-79
2023/12/19 10:14:33;;;;;;;1.30;0.83;;;;;;;-145.69;33.69;52276.06;4935353;29;20217;-79
2023/12/19 10:17:04;;;;;;;1.20;0.90;;;;;;;-145.69;33.79;52250.31;4935199;29;20282;-78
2023/12/19 10:19:33;;;;;;;1.13;0.70;;;;;;;-145.69;32.86;52256.25;4935348;29;20207;-79
2023/12/19 10:22:06;;;;;;;1.13;0.80;;;;;;;-145.69;32.80;52264.16;4934841;29;20223;-80
2023/12/19 10:24:34;;;;;;;1.30;0.90;;;;;;;-145.69;32.57;52256.25;4935359;29;20251;-80
2023/12/19 10:27:01;;;;;;;2.83;0.97;;;;;;;-145.69;31.30;52230.50;4935357;29;20222;-79
2023/12/19 10:29:28;;;;;;;1.00;0.80;;;;;;;-145.69;30.86;52214.66;4934842;29;20247;-79
2023/12/19 10:31:55;;;;;;;1.00;0.70;;;;;;;-145.69;31.40;52240.41;4935167;29;20254;-80
2023/12/19 10:34:22;;;;;;;0.70;0.70;;;;;;;-145.69;30.96;52238.44;4934968;29;20284;-80
2023/12/19 10:36:49;;;;;;;3.07;0.70;;;;;;;-145.69;30.30;52200.81;4935367;29;20207;-79
2023/12/19 10:39:20;;;;;;;0.45;0.45;;;;;;;-145.69;28.00;52236.44;4935318;29;20208;-80
2023/12/19 10:41:48;;;;;;;0.70;0.70;;;;;;;-145.69;29.46;52222.59;4934663;29;20206;-81
2023/12/19 10:44:17;;;;;;;3.27;0.73;;;;;;;-145.69;29.30;52226.53;4934693;29;20449;-79
2023/12/19 10:46:44;;;;;;;1.35;0.55;;;;;;;-145.69;28.85;52220.59;4938420;29;20200;-79
2023/12/19 10:49:11;;;;;;;0.50;0.50;;;;;;;-145.69;29.21;52220.59;4938733;29;20203;-81
2023/12/19 10:51:41;;;;;;;0.95;0.77;;;;;;;-145.69;29.64;52222.59;4938410;29;20200;-81
2023/12/19 10:54:09;;;;;;;5.20;2.03;;;;;;;-145.69;29.39;52179.03;4938321;29;20736;-81
2023/12/19 10:56:46;;;;;;;4.32;2.10;;;;;;;-145.69;28.74;52179.03;4938305;29;20211;-81
2023/12/19 10:59:23;;;;;;;2.13;1.08;;;;;;;-145.69;28.59;52186.94;4938383;29;20209;-82
2023/12/19 11:01:54;;;;;;;0.43;0.43;;;;;;;-145.69;28.22;52202.78;4938516;29;20225;-81
2023/12/19 11:04:23;;;;;;;0.50;0.50;;;;;;;-145.69;27.98;52194.88;4938241;29;20709;-82
2023/12/19 11:06:54;;;;;;;1.85;0.28;;;;;;;-145.69;26.25;52163.19;4936622;29;20678;-82
2023/12/19 11:09:25;;;;;;;0.47;0.40;;;;;;;-145.69;26.53;52175.06;4919226;29;20730;-82
2023/12/19 11:11:53;;;;;;;0.38;0.38;;;;;;;-145.69;26.35;52190.91;4919091;29;20271;-83
2023/12/19 11:14:23;;;;;;;0.52;0.43;;;;;;;-145.69;26.58;52190.91;4919341;29;20227;-83
2023/12/19 11:16:54;;;;;;;0.63;0.50;;;;;;;-145.69;27.13;52165.16;4924727;29;20622;-83
2023/12/19 11:19:25;;;;;;;0.82;0.43;;;;;;;-145.69;26.79;52139.41;4938030;29;20290;-83